Time;durP1;ratioP1;P1;durP2;ratioP2;P2;SDS_P1;SDS_P2;PMS_P1;PMS_P2;Temp;Humidity;BMP_temperature;BMP_pressure;BME280_temperature;BME280_humidity;BME280_pressure;Samples;Min_cycle;Max_cycle;Signal;HPM_P1;HPM_P2
2022/05/05 00:01:34;;;;;;;5.97;3.50;;;14.20;99.90;;;;;;6067962;23;20013;-83
2022/05/05 00:04:00;;;;;;;5.55;3.40;;;14.20;99.90;;;;;;6067827;23;20105;-83
2022/05/05 00:06:27;;;;;;;6.45;3.38;;;14.20;99.90;;;;;;6067833;23;20453;-83
2022/05/05 00:08:54;;;;;;;5.30;3.70;;;14.20;99.90;;;;;;6067813;23;20444;-83
2022/05/05 00:16:48;;;;;;;7.93;3.60;;;14.20;99.90;;;;;;6093702;23;20021;-83
2022/05/05 00:19:14;;;;;;;5.30;3.20;;;14.20;99.90;;;;;;6067585;23;20422;-83
2022/05/05 00:21:40;;;;;;;5.13;3.28;;;14.20;99.90;;;;;;6093914;23;19999;-83
2022/05/05 00:24:07;;;;;;;5.55;3.13;;;14.20;99.90;;;;;;6093327;23;20002;-83
2022/05/05 00:26:32;;;;;;;3.97;3.35;;;14.20;99.90;;;;;;6067661;23;20029;-83
2022/05/05 00:28:58;;;;;;;4.05;3.25;;;14.20;99.90;;;;;;6093624;23;20007;-83
2022/05/05 00:31:24;;;;;;;5.07;2.95;;;14.10;99.90;;;;;;6093871;23;20033;-83
2022/05/05 00:33:49;;;;;;;5.20;3.45;;;14.10;99.90;;;;;;6067823;23;20007;-83
2022/05/05 00:36:16;;;;;;;4.60;3.42;;;14.10;99.90;;;;;;6067614;23;20010;-83
2022/05/05 00:38:41;;;;;;;3.80;3.05;;;14.10;99.90;;;;;;6067511;23;20338;-83
2022/05/05 00:41:08;;;;;;;9.68;3.58;;;14.20;99.90;;;;;;6067693;23;20003;-83
2022/05/05 00:43:35;;;;;;;5.85;3.10;;;14.10;99.90;;;;;;6093538;23;20042;-83
2022/05/05 00:46:04;;;;;;;5.90;3.50;;;14.10;99.90;;;;;;6067422;23;20006;-83
2022/05/05 00:48:30;;;;;;;3.83;3.38;;;14.10;99.90;;;;;;6093080;23;20024;-83
2022/05/05 00:50:57;;;;;;;3.90;3.10;;;14.10;99.90;;;;;;6067481;23;20026;-83
2022/05/05 00:53:23;;;;;;;3.67;3.10;;;14.10;99.90;;;;;;6093214;23;19995;-83
2022/05/05 00:55:58;;;;;;;5.95;3.50;;;14.10;99.90;;;;;;6092700;23;20109;-83
2022/05/05 00:58:25;;;;;;;4.45;3.05;;;14.10;99.90;;;;;;6067412;23;20017;-83
2022/05/05 01:00:51;;;;;;;5.45;3.30;;;14.10;99.90;;;;;;6067467;23;20007;-83
2022/05/05 01:03:18;;;;;;;5.47;3.30;;;14.10;99.90;;;;;;6067395;23;20057;-83
2022/05/05 01:05:44;;;;;;;7.80;3.30;;;14.10;99.90;;;;;;6067374;23;20044;-83
2022/05/05 01:08:10;;;;;;;3.38;3.08;;;14.10;99.90;;;;;;6067548;23;20003;-83
2022/05/05 01:10:36;;;;;;;5.07;3.08;;;14.10;99.90;;;;;;6067381;23;20010;-83
2022/05/05 01:13:02;;;;;;;3.47;3.17;;;14.10;99.90;;;;;;6067687;23;20013;-82
2022/05/05 01:15:33;;;;;;;6.82;3.20;;;14.10;99.90;;;;;;6067677;23;20017;-83
2022/05/05 01:17:59;;;;;;;3.20;2.80;;;14.10;99.90;;;;;;6067274;23;20087;-83
2022/05/05 01:20:24;;;;;;;4.88;3.47;;;14.10;99.90;;;;;;6067307;23;20038;-83
2022/05/05 01:22:50;;;;;;;5.38;3.30;;;14.10;99.90;;;;;;6067316;23;20060;-83
2022/05/05 01:28:10;;;;;;;6.07;3.47;;;14.00;99.90;;;;;;6093126;23;20014;-83
2022/05/05 01:30:40;;;;;;;3.22;2.92;;;14.00;99.90;;;;;;6092880;23;20426;-83
2022/05/05 01:33:13;;;;;;;3.95;3.33;;;14.10;99.90;;;;;;6067352;23;20018;-82
2022/05/05 01:35:39;;;;;;;4.05;3.30;;;14.00;99.90;;;;;;6067133;23;20012;-83
2022/05/05 01:38:10;;;;;;;4.05;3.05;;;14.00;99.90;;;;;;6092793;23;20003;-82
2022/05/05 01:40:36;;;;;;;4.93;3.35;;;14.00;99.90;;;;;;6067190;23;20003;-83
2022/05/05 01:43:06;;;;;;;4.10;3.30;;;14.00;99.90;;;;;;6093100;23;20326;-82
2022/05/05 01:45:32;;;;;;;6.25;3.58;;;14.00;99.90;;;;;;6067263;23;20009;-83
2022/05/05 01:47:58;;;;;;;5.70;3.17;;;14.00;99.90;;;;;;6092715;23;20010;-83
2022/05/05 01:50:25;;;;;;;3.42;3.13;;;14.00;99.90;;;;;;6067212;23;20017;-82
2022/05/05 01:52:52;;;;;;;4.35;3.05;;;14.00;99.90;;;;;;6093011;23;20307;-83
2022/05/05 01:55:21;;;;;;;4.40;3.40;;;14.00;99.90;;;;;;6092239;23;20018;-82
2022/05/05 01:57:47;;;;;;;6.38;3.50;;;14.00;99.90;;;;;;6067356;23;20014;-83
2022/05/05 02:00:14;;;;;;;4.18;3.17;;;13.90;99.90;;;;;;6093411;23;20006;-83
2022/05/05 02:02:43;;;;;;;5.30;4.05;;;13.90;99.90;;;;;;6068090;23;20029;-82
2022/05/05 02:05:11;;;;;;;4.78;3.58;;;14.00;99.90;;;;;;6093816;23;20068;-83
2022/05/05 02:07:40;;;;;;;4.28;3.55;;;13.90;99.90;;;;;;6068115;23;20053;-83
2022/05/05 02:10:07;;;;;;;5.05;3.38;;;13.90;99.90;;;;;;6093627;23;20342;-83
2022/05/05 02:12:38;;;;;;;4.55;3.28;;;13.90;99.90;;;;;;6068003;23;20082;-83
2022/05/05 02:15:06;;;;;;;5.45;3.20;;;13.90;99.90;;;;;;6068225;23;20011;-82
2022/05/05 02:17:33;;;;;;;4.60;3.15;;;13.90;99.90;;;;;;6093954;23;20478;-83
2022/05/05 02:20:03;;;;;;;4.50;3.15;;;13.90;99.90;;;;;;6067960;23;20006;-82
2022/05/05 02:22:28;;;;;;;3.25;2.92;;;13.90;99.90;;;;;;6093450;23;20017;-82
2022/05/05 02:24:54;;;;;;;3.35;3.00;;;13.90;99.90;;;;;;6093936;23;19999;-82
2022/05/05 02:27:20;;;;;;;3.72;3.35;;;13.90;99.90;;;;;;6068254;23;20330;-83
2022/05/05 02:29:48;;;;;;;4.45;3.70;;;13.90;99.90;;;;;;6068179;23;20084;-82
2022/05/05 02:32:14;;;;;;;5.25;3.20;;;13.90;99.90;;;;;;6093613;23;20003;-83
2022/05/05 02:34:39;;;;;;;5.47;3.22;;;13.90;99.90;;;;;;6093505;23;20052;-82
2022/05/05 02:39:49;;;;;;;4.40;3.30;;;13.80;99.90;;;;;;6093456;23;20041;-82
2022/05/05 02:42:16;;;;;;;5.10;3.05;;;13.80;99.90;;;;;;6093506;23;20327;-82
2022/05/05 02:44:43;;;;;;;5.32;3.42;;;13.80;99.90;;;;;;6067971;23;20410;-82
2022/05/05 02:47:09;;;;;;;5.20;3.13;;;13.80;99.90;;;;;;6068087;23;20009;-82
2022/05/05 02:49:35;;;;;;;6.80;3.28;;;13.90;99.90;;;;;;6093535;23;20086;-83
2022/05/05 02:52:05;;;;;;;4.47;2.97;;;13.80;99.90;;;;;;6093550;23;20010;-82
2022/05/05 02:54:51;;;;;;;5.53;3.22;;;13.80;99.90;;;;;;6093448;23;20085;-83
2022/05/05 02:57:22;;;;;;;3.70;3.30;;;13.80;99.90;;;;;;6093954;23;20026;-82
2022/05/05 02:59:51;;;;;;;7.38;3.45;;;13.80;99.90;;;;;;6067869;23;20010;-82
2022/05/05 03:02:17;;;;;;;3.28;2.97;;;13.80;99.90;;;;;;6067990;23;20009;-83
2022/05/05 03:04:43;;;;;;;6.95;3.15;;;13.80;99.90;;;;;;6093822;23;20030;-83
2022/05/05 03:07:09;;;;;;;4.75;3.42;;;13.80;99.90;;;;;;6067946;23;20038;-83
2022/05/05 03:09:35;;;;;;;3.67;2.83;;;13.80;99.90;;;;;;6067521;23;20214;-83
2022/05/05 03:12:01;;;;;;;6.70;2.70;;;13.80;99.90;;;;;;6067924;23;20017;-82
2022/05/05 03:14:27;;;;;;;5.03;2.78;;;13.80;99.90;;;;;;6093493;23;20008;-82
2022/05/05 03:16:53;;;;;;;3.63;3.03;;;13.80;99.90;;;;;;6067924;23;20010;-82
2022/05/05 03:19:19;;;;;;;7.25;3.08;;;13.80;99.90;;;;;;6067749;23;20013;-82
2022/05/05 03:21:44;;;;;;;4.18;2.88;;;13.80;99.90;;;;;;6068020;23;20013;-82
2022/05/05 03:24:10;;;;;;;4.55;3.17;;;13.80;99.90;;;;;;6093814;23;20073;-82
2022/05/05 03:26:36;;;;;;;7.95;3.00;;;13.80;99.90;;;;;;6067965;23;20026;-83
2022/05/05 03:29:02;;;;;;;5.38;2.70;;;13.80;99.90;;;;;;6093432;23;20010;-82
2022/05/05 03:31:28;;;;;;;3.92;2.85;;;13.70;99.90;;;;;;6093300;23;20379;-83
2022/05/05 03:33:54;;;;;;;4.78;3.30;;;13.80;99.90;;;;;;6067795;23;20011;-82
2022/05/05 03:36:19;;;;;;;4.20;2.80;;;13.70;99.90;;;;;;6093704;23;20010;-82
2022/05/05 03:38:45;;;;;;;4.00;3.22;;;13.70;99.90;;;;;;6067744;23;20021;-82
2022/05/05 03:41:11;;;;;;;3.17;2.75;;;13.70;99.90;;;;;;6067777;23;20055;-83
2022/05/05 03:43:36;;;;;;;4.25;2.75;;;13.70;99.90;;;;;;6067759;23;20089;-83
2022/05/05 03:46:02;;;;;;;4.43;3.13;;;13.70;99.90;;;;;;6093264;23;20018;-82
2022/05/05 03:48:31;;;;;;;3.65;3.20;;;13.70;99.90;;;;;;6093300;23;20504;-82
2022/05/05 03:50:57;;;;;;;3.90;2.97;;;13.70;99.90;;;;;;6067678;23;20006;-82
2022/05/05 03:53:22;;;;;;;5.80;2.97;;;13.70;99.90;;;;;;6093321;23;20418;-82
2022/05/05 03:55:48;;;;;;;4.43;3.15;;;13.70;99.90;;;;;;6092954;23;20014;-82
2022/05/05 03:58:14;;;;;;;4.03;2.90;;;13.70;99.90;;;;;;6093272;23;20002;-83
2022/05/05 04:00:39;;;;;;;3.95;3.10;;;13.70;99.90;;;;;;6067512;23;20013;-83
2022/05/05 04:05:49;;;;;;;4.85;2.97;;;13.70;99.90;;;;;;6093621;23;20334;-82
2022/05/05 04:08:15;;;;;;;4.32;2.88;;;13.70;99.90;;;;;;6093254;23;19999;-83
2022/05/05 04:10:40;;;;;;;4.22;3.00;;;13.70;99.90;;;;;;6093191;23;20010;-82
2022/05/05 04:13:06;;;;;;;3.88;3.00;;;13.60;99.90;;;;;;6093783;23;20079;-82
2022/05/05 04:15:33;;;;;;;4.68;3.05;;;13.60;99.90;;;;;;6067565;23;20003;-83
2022/05/05 04:18:00;;;;;;;3.95;2.72;;;13.60;99.90;;;;;;6067548;23;20010;-82
2022/05/05 04:20:25;;;;;;;4.18;3.40;;;13.60;99.90;;;;;;6093278;23;20037;-83
2022/05/05 04:22:51;;;;;;;4.53;2.72;;;13.60;99.90;;;;;;6093083;23;19998;-82
2022/05/05 04:25:17;;;;;;;4.53;2.83;;;13.60;99.90;;;;;;6067385;23;20010;-83
2022/05/05 04:27:45;;;;;;;3.95;2.92;;;13.60;99.90;;;;;;6093013;23;20025;-83
2022/05/05 04:30:13;;;;;;;5.28;3.53;;;13.60;99.90;;;;;;6067460;23;20007;-82
2022/05/05 04:32:38;;;;;;;3.10;2.80;;;13.60;99.90;;;;;;6067422;23;20433;-82
2022/05/05 04:35:04;;;;;;;3.10;2.80;;;13.60;99.90;;;;;;6067584;23;20006;-82
2022/05/05 04:37:30;;;;;;;3.28;2.80;;;13.60;99.90;;;;;;6067534;23;20006;-82
2022/05/05 04:39:56;;;;;;;4.20;3.00;;;13.60;99.90;;;;;;6092962;23;20148;-82
2022/05/05 04:42:21;;;;;;;4.45;3.15;;;13.60;99.90;;;;;;6093410;23;20068;-83
2022/05/05 04:44:47;;;;;;;3.90;3.05;;;13.60;99.90;;;;;;6067476;23;20052;-82
2022/05/05 04:47:13;;;;;;;5.38;3.00;;;13.60;99.90;;;;;;6067456;23;19999;-82
2022/05/05 04:49:38;;;;;;;6.63;3.05;;;13.60;99.90;;;;;;6093117;23;20341;-82
2022/05/05 04:52:04;;;;;;;3.70;3.08;;;13.60;99.90;;;;;;6093490;23;20002;-83
2022/05/05 04:54:30;;;;;;;3.00;2.67;;;13.60;99.90;;;;;;6093233;23;20007;-83
2022/05/05 04:56:56;;;;;;;3.70;3.15;;;13.60;99.90;;;;;;6092820;23;20018;-82
2022/05/05 04:59:22;;;;;;;4.65;3.33;;;13.60;99.90;;;;;;6067354;23;20435;-82
2022/05/05 05:01:47;;;;;;;6.82;3.08;;;13.60;99.90;;;;;;6067357;23;20002;-83
2022/05/05 05:04:13;;;;;;;4.82;3.00;;;13.60;99.90;;;;;;6093326;23;20002;-82
2022/05/05 05:06:39;;;;;;;4.20;2.92;;;13.60;99.90;;;;;;6092859;23;20026;-82
2022/05/05 05:09:05;;;;;;;4.18;3.03;;;13.60;99.90;;;;;;6067439;23;20014;-83
2022/05/05 05:11:31;;;;;;;5.53;3.30;;;13.60;99.90;;;;;;6067511;23;20006;-83
2022/05/05 05:13:56;;;;;;;3.38;2.95;;;13.60;99.90;;;;;;6067382;23;20433;-82
2022/05/05 05:16:22;;;;;;;3.60;2.70;;;13.60;99.90;;;;;;6092937;23;20006;-82
2022/05/05 05:18:50;;;;;;;4.85;2.78;;;13.60;99.90;;;;;;6093050;23;20078;-82
2022/05/05 05:21:15;;;;;;;4.53;3.38;;;13.60;99.90;;;;;;6092817;23;20086;-83
2022/05/05 05:23:41;;;;;;;4.50;2.58;;;13.60;99.90;;;;;;6093064;23;20433;-83
2022/05/05 05:26:07;;;;;;;3.50;3.13;;;13.60;99.90;;;;;;6067214;23;20418;-83
2022/05/05 05:28:33;;;;;;;3.60;2.70;;;13.60;99.90;;;;;;6093074;23;20069;-83
2022/05/05 05:30:58;;;;;;;3.33;2.92;;;13.70;99.90;;;;;;6093104;23;20322;-82
2022/05/05 05:33:24;;;;;;;3.78;3.00;;;13.60;99.90;;;;;;6092406;23;20025;-83
2022/05/05 05:35:50;;;;;;;3.90;2.70;;;13.70;99.90;;;;;;6067179;23;20006;-83
2022/05/05 05:38:19;;;;;;;3.17;2.75;;;13.60;99.90;;;;;;6092982;23;20003;-82
2022/05/05 05:40:45;;;;;;;3.03;2.50;;;13.70;99.90;;;;;;6066951;23;20090;-82
2022/05/05 05:43:12;;;;;;;4.25;2.92;;;13.70;99.90;;;;;;6067858;23;20045;-83
2022/05/05 05:45:37;;;;;;;3.53;2.90;;;13.70;99.90;;;;;;6093001;23;20497;-83
2022/05/05 05:48:05;;;;;;;4.55;2.80;;;13.70;99.90;;;;;;6067110;23;20004;-83
2022/05/05 05:50:31;;;;;;;3.63;2.88;;;13.70;99.90;;;;;;6092549;23;20009;-83
2022/05/05 05:52:58;;;;;;;4.68;3.13;;;13.80;99.90;;;;;;6067000;23;20010;-83
2022/05/05 05:55:23;;;;;;;4.93;2.95;;;13.80;99.90;;;;;;6066686;23;20014;-83
2022/05/05 05:57:49;;;;;;;3.95;2.80;;;13.80;99.90;;;;;;6067014;23;20017;-83
2022/05/05 06:00:15;;;;;;;4.70;2.60;;;13.80;99.90;;;;;;6067049;23;20094;-83
2022/05/05 06:05:26;;;;;;;4.18;2.97;;;13.80;99.90;;;;;;6092877;23;20009;-83
2022/05/05 06:07:52;;;;;;;3.63;2.88;;;13.80;99.90;;;;;;6066875;23;20331;-83
2022/05/05 06:10:18;;;;;;;3.35;2.70;;;13.80;99.90;;;;;;6066873;23;20006;-83
2022/05/05 06:12:44;;;;;;;4.82;2.80;;;13.80;99.90;;;;;;6066866;23;20453;-83
2022/05/05 06:15:10;;;;;;;3.75;2.65;;;13.80;99.90;;;;;;6066911;23;20006;-83
2022/05/05 06:17:36;;;;;;;3.58;2.67;;;13.80;99.90;;;;;;6092386;23;20007;-83
2022/05/05 06:20:02;;;;;;;3.90;2.80;;;13.80;99.90;;;;;;6066864;23;20434;-82
2022/05/05 06:22:28;;;;;;;3.45;2.65;;;13.80;99.90;;;;;;6092323;23;20574;-83
2022/05/05 06:24:54;;;;;;;3.13;2.83;;;13.80;99.90;;;;;;6092392;23;19998;-83
2022/05/05 06:27:19;;;;;;;3.50;2.75;;;13.80;99.90;;;;;;6092730;23;19998;-83
2022/05/05 06:29:45;;;;;;;3.00;2.65;;;13.70;99.90;;;;;;6092282;23;20006;-83
2022/05/05 06:32:11;;;;;;;3.55;3.10;;;13.80;99.90;;;;;;6066888;23;20086;-84
2022/05/05 06:34:37;;;;;;;4.25;2.40;;;13.80;99.90;;;;;;6092940;23;20002;-85
2022/05/05 06:37:04;;;;;;;7.90;3.03;;;13.70;99.90;;;;;;6092701;23;20033;-86
2022/05/05 06:39:30;;;;;;;5.38;3.88;;;13.80;99.90;;;;;;6067373;23;20013;-84
2022/05/05 06:41:56;;;;;;;4.65;3.92;;;13.70;99.90;;;;;;6092350;23;20003;-85
2022/05/05 06:44:22;;;;;;;5.68;4.68;;;13.50;99.90;;;;;;6066680;23;20006;-81
2022/05/05 06:46:50;;;;;;;7.60;4.13;;;13.50;99.90;;;;;;6068462;23;20018;-83
2022/05/05 06:49:17;;;;;;;6.85;5.80;;;13.40;99.90;;;;;;6093676;23;20030;-80
2022/05/05 06:51:43;;;;;;;10.18;5.57;;;13.40;99.90;;;;;;6093365;23;20492;-82
2022/05/05 06:54:09;;;;;;;7.45;5.20;;;13.40;99.90;;;;;;6067730;23;20011;-82
2022/05/05 06:56:34;;;;;;;9.68;5.40;;;13.30;99.90;;;;;;6067678;23;20346;-82
2022/05/05 06:59:00;;;;;;;6.97;5.45;;;13.40;99.90;;;;;;6067581;23;20423;-82
2022/05/05 07:06:54;;;;;;;6.45;5.05;;;13.50;99.90;;;;;;6093443;23;20009;-82
2022/05/05 07:12:04;;;;;;;6.55;4.78;;;13.60;99.90;;;;;;6093730;23;20056;-81
2022/05/05 07:14:31;;;;;;;6.68;5.03;;;13.60;99.90;;;;;;6067786;23;20007;-83
2022/05/05 07:16:56;;;;;;;6.55;4.80;;;13.60;99.90;;;;;;6093335;23;20373;-83
2022/05/05 07:19:22;;;;;;;6.72;4.90;;;13.60;99.90;;;;;;6068107;23;20003;-82
2022/05/05 07:21:49;;;;;;;6.00;4.55;;;13.60;99.90;;;;;;6093348;23;20073;-82
2022/05/05 07:24:14;;;;;;;5.72;4.10;;;13.70;99.90;;;;;;6093300;23;20441;-82
2022/05/05 07:26:40;;;;;;;5.25;4.25;;;13.70;99.90;;;;;;6067762;23;19998;-82
2022/05/05 07:29:05;;;;;;;6.28;4.60;;;13.70;99.90;;;;;;6093225;23;20053;-82
2022/05/05 07:31:31;;;;;;;5.97;4.35;;;13.70;99.90;;;;;;6093252;23;20010;-82
2022/05/05 07:33:57;;;;;;;5.25;4.35;;;13.70;99.90;;;;;;6067633;23;20007;-82
2022/05/05 07:36:24;;;;;;;7.43;4.65;;;13.70;99.90;;;;;;6067599;23;20011;-82
2022/05/05 07:38:49;;;;;;;6.25;4.25;;;13.70;99.90;;;;;;6093070;23;20303;-82
2022/05/05 07:41:15;;;;;;;6.43;4.63;;;13.70;99.90;;;;;;6093816;23;20009;-82
2022/05/05 07:43:44;;;;;;;5.45;4.38;;;13.80;99.90;;;;;;6093475;23;20010;-82
2022/05/05 07:46:09;;;;;;;5.90;3.88;;;13.80;99.90;;;;;;6067515;23;19999;-82
2022/05/05 07:48:35;;;;;;;5.88;4.30;;;13.80;99.90;;;;;;6067528;23;20085;-82
2022/05/05 07:51:01;;;;;;;5.72;4.22;;;13.80;99.90;;;;;;6067698;23;20003;-83
2022/05/05 07:53:26;;;;;;;6.40;4.13;;;13.80;99.90;;;;;;6093183;23;19998;-83
2022/05/05 07:55:52;;;;;;;4.95;3.90;;;13.80;99.90;;;;;;6092813;23;20018;-82
2022/05/05 07:58:19;;;;;;;6.55;4.13;;;13.80;99.90;;;;;;6093569;23;20064;-83
2022/05/05 08:00:44;;;;;;;6.82;4.10;;;13.80;99.90;;;;;;6067468;23;20068;-82
2022/05/05 08:03:10;;;;;;;5.32;4.10;;;13.90;99.90;;;;;;6093836;23;20003;-82
2022/05/05 08:05:35;;;;;;;5.10;3.78;;;13.90;99.90;;;;;;6067867;23;20468;-81
2022/05/05 08:08:01;;;;;;;5.18;4.30;;;13.90;99.90;;;;;;6067623;23;20388;-81
2022/05/05 08:10:29;;;;;;;6.65;4.07;;;13.90;99.90;;;;;;6067691;23;20006;-82
2022/05/05 08:12:55;;;;;;;5.63;4.15;;;13.90;99.90;;;;;;6067509;23;20006;-82
2022/05/05 08:15:21;;;;;;;9.68;5.00;;;13.90;99.90;;;;;;6093039;23;20018;-82
2022/05/05 08:17:47;;;;;;;4.57;3.90;;;13.90;99.90;;;;;;6067529;23;20006;-83
2022/05/05 08:20:15;;;;;;;6.75;4.50;;;13.90;99.90;;;;;;6067311;23;20012;-83
2022/05/05 08:22:41;;;;;;;9.68;4.60;;;13.80;99.90;;;;;;6092986;23;20034;-83
2022/05/05 08:30:38;;;;;;;6.35;4.50;;;13.80;99.90;;;;;;6093400;23;20079;-82
2022/05/05 08:33:04;;;;;;;5.28;4.50;;;13.80;99.90;;;;;;6092993;23;20370;-82
2022/05/05 08:35:30;;;;;;;7.22;5.10;;;13.80;99.90;;;;;;6067310;23;20037;-82
2022/05/05 08:37:57;;;;;;;8.85;5.15;;;13.80;99.90;;;;;;6093303;23;20010;-82
2022/05/05 08:40:25;;;;;;;6.43;4.82;;;13.80;99.90;;;;;;6067244;23;20434;-82
2022/05/05 08:42:51;;;;;;;7.03;5.20;;;13.80;99.90;;;;;;6067310;23;19999;-82
2022/05/05 08:45:17;;;;;;;10.05;4.93;;;13.80;99.90;;;;;;6092984;23;20033;-82
2022/05/05 08:47:45;;;;;;;6.13;4.60;;;13.80;99.90;;;;;;6092910;23;20057;-82
2022/05/05 08:50:11;;;;;;;8.10;5.30;;;13.80;99.90;;;;;;6067237;23;20006;-82
2022/05/05 08:52:45;;;;;;;7.65;5.13;;;13.80;99.90;;;;;;6092925;23;20463;-83
2022/05/05 08:55:15;;;;;;;6.32;4.80;;;13.80;99.90;;;;;;6092898;23;20006;-83
2022/05/05 08:57:42;;;;;;;7.03;4.63;;;13.80;99.90;;;;;;6092859;23;20074;-82
2022/05/05 09:00:08;;;;;;;7.15;5.60;;;13.80;99.90;;;;;;6092766;23;20017;-82
2022/05/05 09:02:34;;;;;;;7.38;5.40;;;13.80;99.90;;;;;;6092834;23;19998;-82
2022/05/05 09:04:59;;;;;;;8.05;5.75;;;13.80;99.90;;;;;;6067300;23;20003;-83
2022/05/05 09:07:49;;;;;;;6.18;4.78;;;13.80;99.90;;;;;;6092380;23;20081;-82
2022/05/05 09:10:16;;;;;;;6.80;5.00;;;13.80;99.90;;;;;;6092820;23;20009;-82
2022/05/05 09:12:42;;;;;;;9.13;5.18;;;13.80;99.90;;;;;;6067241;23;20056;-82
2022/05/05 09:15:10;;;;;;;9.65;5.38;;;13.80;99.90;;;;;;6067158;23;20010;-82
2022/05/05 09:17:36;;;;;;;9.13;5.32;;;13.80;99.90;;;;;;6092784;23;20028;-82
2022/05/05 09:20:04;;;;;;;7.50;5.30;;;13.80;99.90;;;;;;6092906;23;20056;-82
2022/05/05 09:22:30;;;;;;;11.35;6.00;;;13.80;99.90;;;;;;6092667;23;20005;-83
2022/05/05 09:24:57;;;;;;;8.00;5.68;;;13.80;99.90;;;;;;6093018;23;19999;-83
2022/05/05 09:27:31;;;;;;;9.35;6.15;;;13.80;99.90;;;;;;6093051;23;20069;-82
2022/05/05 09:30:23;;;;;;;9.23;5.07;;;13.80;99.90;;;;;;6067178;23;20346;-83
2022/05/05 09:32:49;;;;;;;9.20;5.43;;;13.80;99.90;;;;;;6068505;23;20042;-82
2022/05/05 09:35:18;;;;;;;7.85;4.88;;;13.80;99.90;;;;;;6093001;23;20433;-83
2022/05/05 09:37:49;;;;;;;7.95;5.45;;;13.80;99.90;;;;;;6067065;23;20090;-83
2022/05/05 09:40:18;;;;;;;9.15;4.90;;;13.80;99.90;;;;;;6092479;23;20010;-82
2022/05/05 09:42:50;;;;;;;11.68;5.57;;;13.80;99.90;;;;;;6067003;23;20002;-82
2022/05/05 09:45:32;;;;;;;6.57;5.10;;;13.80;99.90;;;;;;6088679;23;20017;-83
2022/05/05 09:48:01;;;;;;;5.57;5.00;;;13.80;99.90;;;;;;6092879;23;20073;-82
2022/05/05 09:50:29;;;;;;;8.30;5.10;;;13.80;99.90;;;;;;6066853;23;20086;-82
2022/05/05 09:58:35;;;;;;;6.90;4.82;;;13.80;99.90;;;;;;6092731;23;20049;-82
2022/05/05 10:01:09;;;;;;;8.35;5.70;;;13.80;99.90;;;;;;6092699;23;19999;-83
2022/05/05 10:04:01;;;;;;;10.77;5.38;;;13.80;99.90;;;;;;6066980;23;20018;-83
2022/05/05 10:06:40;;;;;;;7.93;5.53;;;13.80;99.90;;;;;;6067450;23;20006;-82
2022/05/05 10:09:14;;;;;;;8.20;5.30;;;13.80;99.90;;;;;;6066856;23;20003;-83
2022/05/05 10:11:41;;;;;;;8.77;6.57;;;13.80;99.90;;;;;;6092259;23;20013;-82
2022/05/05 10:14:10;;;;;;;6.88;5.70;;;13.80;99.90;;;;;;6092531;23;20006;-83
2022/05/05 10:16:40;;;;;;;7.63;5.93;;;13.80;99.90;;;;;;6066685;23;20014;-83
2022/05/05 10:19:07;;;;;;;7.30;5.72;;;13.80;99.90;;;;;;6092886;23;20130;-83
2022/05/05 10:21:36;;;;;;;6.88;5.45;;;13.80;99.90;;;;;;6067913;23;20013;-83
2022/05/05 10:24:22;;;;;;;7.07;5.10;;;13.80;99.90;;;;;;6093418;23;20534;-83
2022/05/05 10:26:50;;;;;;;8.13;5.97;;;13.80;99.90;;;;;;6093451;23;20003;-82
2022/05/05 10:29:31;;;;;;;7.25;5.47;;;13.80;99.90;;;;;;6093603;23;20275;-82
2022/05/05 10:32:18;;;;;;;7.38;5.18;;;13.80;99.90;;;;;;6093678;23;20414;-82
2022/05/05 10:34:45;;;;;;;8.48;5.53;;;13.80;99.90;;;;;;6067809;23;20052;-82
2022/05/05 10:37:20;;;;;;;7.93;5.82;;;13.80;99.90;;;;;;6093351;23;20002;-82
2022/05/05 10:39:47;;;;;;;;;;;13.80;99.90;;;;;;6093795;23;20089;-82
2022/05/05 10:42:19;;;;;;;9.15;5.57;;;13.80;99.90;;;;;;6067884;23;19901;-83
2022/05/05 10:45:04;;;;;;;7.07;5.50;;;13.80;99.90;;;;;;6093311;23;20426;-82
2022/05/05 10:47:52;;;;;;;7.80;5.43;;;13.90;99.90;;;;;;6093747;23;20009;-82
2022/05/05 10:50:34;;;;;;;8.20;6.03;;;13.80;99.90;;;;;;6067954;23;20013;-83
2022/05/05 10:53:02;;;;;;;8.02;5.97;;;13.80;99.90;;;;;;6067922;23;20338;-83
2022/05/05 10:55:48;;;;;;;7.35;5.45;;;13.80;99.90;;;;;;6067837;23;20101;-83
2022/05/05 10:58:52;;;;;;;9.85;6.18;;;13.80;99.90;;;;;;6067890;23;20097;-83
2022/05/05 11:01:17;;;;;;;6.57;5.22;;;13.80;99.90;;;;;;6067705;23;20023;-82
2022/05/05 11:04:08;;;;;;;8.27;5.72;;;13.80;99.90;;;;;;6093694;23;20034;-82
2022/05/05 11:06:35;;;;;;;7.28;5.78;;;13.80;99.90;;;;;;6093357;23;20330;-83
2022/05/05 11:09:00;;;;;;;8.27;6.18;;;13.80;99.90;;;;;;6093560;23;20010;-83
2022/05/05 11:11:42;;;;;;;8.65;5.88;;;13.80;99.90;;;;;;6093683;23;19998;-83
2022/05/05 11:23:12;;;;;;;7.57;5.28;;;13.90;99.90;;;;;;6093344;23;20065;-82
2022/05/05 11:25:41;;;;;;;7.55;6.60;;;13.90;99.90;;;;;;6067799;23;20331;-82
2022/05/05 11:28:10;;;;;;;8.65;5.93;;;13.90;99.90;;;;;;6067729;23;20315;-83
2022/05/05 11:30:36;;;;;;;7.88;5.60;;;13.90;99.90;;;;;;6067310;23;20102;-82
2022/05/05 11:33:03;;;;;;;8.75;5.53;;;14.00;99.90;;;;;;6093210;23;20002;-82
2022/05/05 11:35:29;;;;;;;11.18;6.25;;;14.00;99.90;;;;;;6093341;23;20010;-82
2022/05/05 11:37:55;;;;;;;7.90;5.75;;;14.00;99.90;;;;;;6067369;23;20502;-83
2022/05/05 11:40:20;;;;;;;7.78;6.03;;;14.00;99.90;;;;;;6093042;23;20014;-82
2022/05/05 11:45:38;;;;;;;9.48;6.60;;;14.10;99.90;;;;;;6093203;23;20052;-83
2022/05/05 11:48:19;;;;;;;7.85;5.80;;;14.10;99.90;;;;;;6068890;23;19998;-83
2022/05/05 11:50:45;;;;;;;7.55;5.90;;;14.20;99.90;;;;;;6067475;23;20003;-83
2022/05/05 11:53:16;;;;;;;8.02;6.22;;;14.20;99.90;;;;;;6067500;23;20013;-82
2022/05/05 11:55:45;;;;;;;7.70;5.80;;;14.30;99.90;;;;;;6067093;23;20053;-82
2022/05/05 12:01:36;;;;;;;8.95;6.45;;;14.30;99.90;;;;;;6067230;23;20122;-83
2022/05/05 12:04:00;;;;;;;8.10;6.03;;;14.40;99.90;;;;;;6093188;23;20018;-83
2022/05/05 12:06:27;;;;;;;8.23;6.20;;;14.50;99.90;;;;;;6067587;23;20017;-83
2022/05/05 12:08:56;;;;;;;11.38;5.40;;;14.50;99.90;;;;;;6093394;23;19998;-84
2022/05/05 12:11:28;;;;;;;9.52;6.05;;;14.60;99.90;;;;;;6067639;23;20438;-83
2022/05/05 12:14:03;;;;;;;10.52;6.47;;;14.70;99.90;;;;;;6067534;23;20010;-83
2022/05/05 12:16:34;;;;;;;7.00;5.50;;;14.80;99.90;;;;;;6093110;23;19998;-83
2022/05/05 12:19:00;;;;;;;8.23;6.00;;;14.80;99.90;;;;;;6067389;23;20068;-83
2022/05/05 12:21:26;;;;;;;10.73;6.72;;;14.90;99.90;;;;;;6067608;23;20009;-84
2022/05/05 12:24:03;;;;;;;6.45;5.75;;;14.90;99.90;;;;;;6067450;23;20002;-84
2022/05/05 12:26:33;;;;;;;8.23;6.45;;;14.90;99.90;;;;;;6067386;23;20450;-83
2022/05/05 12:28:59;;;;;;;10.00;6.82;;;15.00;99.90;;;;;;6093547;23;20446;-83
2022/05/05 12:31:29;;;;;;;9.45;6.93;;;15.00;99.90;;;;;;6067408;23;20020;-83
2022/05/05 12:33:56;;;;;;;9.80;6.90;;;14.90;99.90;;;;;;6067380;23;20017;-83
2022/05/05 12:36:28;;;;;;;12.63;7.00;;;14.90;99.90;;;;;;6067476;23;20018;-83
2022/05/05 12:39:12;;;;;;;11.77;7.30;;;14.80;99.90;;;;;;6067324;23;20010;-83
2022/05/05 12:41:55;;;;;;;12.55;7.43;;;14.80;99.90;;;;;;6067486;23;20093;-82
2022/05/05 12:44:22;;;;;;;9.63;6.32;;;14.80;99.90;;;;;;6067389;23;20056;-83
2022/05/05 12:46:51;;;;;;;9.95;8.48;;;14.70;99.90;;;;;;6093008;23;20009;-83
2022/05/05 12:49:36;;;;;;;8.98;7.50;;;14.70;99.90;;;;;;6093020;23;20078;-83
2022/05/05 12:59:36;;;;;;;9.50;7.50;;;14.60;99.90;;;;;;6093052;23;20390;-83
2022/05/05 13:00:21;;;;;;;9.55;7.30;;;14.60;99.90;;;;;;6093195;23;20052;-83
2022/05/05 13:02:46;;;;;;;11.98;8.05;;;14.60;99.90;;;;;;6067367;23;20361;-83
2022/05/05 13:05:12;;;;;;;8.70;7.18;;;14.70;99.90;;;;;;6092982;23;19999;-83
2022/05/05 13:07:38;;;;;;;7.65;6.57;;;14.60;99.90;;;;;;6067250;23;20378;-83
2022/05/05 13:10:04;;;;;;;10.57;7.15;;;14.70;99.90;;;;;;6067334;23;20052;-83
2022/05/05 13:12:29;;;;;;;10.48;7.20;;;14.60;99.90;;;;;;6067274;23;20350;-83
2022/05/05 13:14:55;;;;;;;10.00;6.38;;;14.70;99.90;;;;;;6067383;23;20006;-83
2022/05/05 13:17:20;;;;;;;8.00;6.63;;;14.70;99.90;;;;;;6067342;23;20013;-83
2022/05/05 13:19:46;;;;;;;11.07;8.90;;;14.70;99.90;;;;;;6067199;23;20006;-83
2022/05/05 13:22:12;;;;;;;10.82;8.45;;;14.80;99.90;;;;;;6092825;23;20014;-83
2022/05/05 13:24:38;;;;;;;9.95;7.82;;;14.70;99.90;;;;;;6067210;23;20007;-83
2022/05/05 13:27:04;;;;;;;12.15;8.07;;;14.70;99.90;;;;;;6067180;23;20006;-83
2022/05/05 13:29:31;;;;;;;12.40;8.25;;;14.70;99.90;;;;;;6092958;23;20347;-83
2022/05/05 13:31:57;;;;;;;10.88;7.80;;;14.70;99.90;;;;;;6067068;23;20089;-83
2022/05/05 13:34:24;;;;;;;13.30;8.75;;;14.80;99.90;;;;;;6067156;23;20092;-83
2022/05/05 13:36:50;;;;;;;12.23;7.13;;;14.80;99.90;;;;;;6067038;23;20010;-83
2022/05/05 13:39:16;;;;;;;9.15;7.63;;;14.80;99.90;;;;;;6066894;23;20453;-83
2022/05/05 13:41:41;;;;;;;12.00;8.85;;;14.80;99.90;;;;;;6092654;23;20409;-83
2022/05/05 13:44:07;;;;;;;9.30;8.02;;;14.90;99.90;;;;;;6092723;23;20030;-83
2022/05/05 13:46:36;;;;;;;9.93;7.68;;;14.90;99.90;;;;;;6092872;23;20005;-83